createdAt,value
2023-10-23T00:01:40.479Z,11.19
2023-10-23T00:04:43.559Z,11.10
2023-10-23T00:07:46.007Z,11.12
2023-10-23T00:10:48.730Z,11.06
2023-10-23T00:13:51.266Z,11.10
2023-10-23T00:16:54.342Z,11.06
2023-10-23T00:19:56.709Z,11.06
2023-10-23T00:22:59.426Z,11.02
2023-10-23T00:26:01.668Z,11.04
2023-10-23T00:29:04.530Z,11.00
2023-10-23T00:32:07.175Z,10.96
2023-10-23T00:35:09.944Z,11.08
2023-10-23T00:38:12.533Z,11.04
2023-10-23T00:41:15.171Z,10.86
2023-10-23T00:44:17.542Z,10.86
2023-10-23T00:47:22.548Z,10.83
2023-10-23T00:50:24.904Z,10.81
2023-10-23T00:53:31.601Z,10.75
2023-10-23T00:56:35.852Z,10.63
2023-10-23T00:59:38.527Z,10.58
2023-10-23T01:02:41.504Z,10.58
2023-10-23T01:05:44.674Z,10.70
2023-10-23T01:08:47.384Z,10.74
2023-10-23T01:11:50.335Z,10.65
2023-10-23T01:14:52.674Z,10.60
2023-10-23T01:17:56.598Z,10.40
2023-10-23T01:20:58.942Z,10.43
2023-10-23T01:24:06.195Z,10.32
2023-10-23T01:27:08.445Z,10.32
2023-10-23T01:30:11.668Z,10.37
2023-10-23T01:33:14.218Z,10.50
2023-10-23T01:36:16.813Z,10.54
2023-10-23T01:39:19.285Z,10.40
2023-10-23T01:42:21.903Z,10.34
2023-10-23T01:45:24.324Z,10.40
2023-10-23T01:48:27.900Z,10.52
2023-10-23T01:51:31.048Z,10.56
2023-10-23T01:54:33.688Z,10.53
2023-10-23T01:57:36.391Z,10.57
2023-10-23T02:00:39.303Z,10.58
2023-10-23T02:03:43.281Z,10.52
2023-10-23T02:06:45.911Z,10.44
2023-10-23T02:09:48.543Z,10.39
2023-10-23T02:12:51.042Z,10.35
2023-10-23T02:15:53.694Z,10.19
2023-10-23T02:18:58.992Z,10.00
2023-10-23T02:22:01.741Z,10.04
2023-10-23T02:25:05.186Z,10.09
2023-10-23T02:28:07.903Z,10.06
2023-10-23T02:31:10.438Z,10.10
2023-10-23T02:34:14.194Z,10.21
2023-10-23T02:37:17.004Z,9.99
2023-10-23T02:40:19.768Z,9.90
2023-10-23T02:43:22.324Z,9.74
2023-10-23T02:46:24.897Z,9.76
2023-10-23T02:49:27.280Z,9.84
2023-10-23T02:52:29.911Z,9.77
2023-10-23T02:55:32.307Z,9.83
2023-10-23T02:58:37.296Z,9.77
2023-10-23T03:01:39.566Z,9.89
2023-10-23T03:04:42.553Z,9.88
2023-10-23T03:07:45.168Z,9.92
2023-10-23T03:10:48.002Z,9.85
2023-10-23T03:13:51.707Z,9.74
2023-10-23T03:16:54.408Z,9.93
2023-10-23T03:19:57.005Z,10.00
2023-10-23T03:22:59.889Z,9.73
2023-10-23T03:26:02.949Z,9.65
2023-10-23T03:29:06.089Z,9.70
2023-10-23T03:32:08.400Z,9.73
2023-10-23T03:35:11.052Z,9.69
2023-10-23T03:38:14.945Z,9.66
2023-10-23T03:41:17.566Z,9.67
2023-10-23T03:44:22.000Z,9.85
2023-10-23T03:47:24.624Z,9.94
2023-10-23T03:50:27.155Z,10.06
2023-10-23T03:53:30.049Z,9.85
2023-10-23T03:56:32.403Z,9.89
2023-10-23T03:59:35.063Z,9.84
2023-10-23T04:02:37.512Z,10.03
2023-10-23T04:05:41.310Z,9.79
2023-10-23T04:08:44.320Z,9.59
2023-10-23T04:11:47.171Z,9.40
2023-10-23T04:14:49.490Z,9.41
2023-10-23T04:17:52.238Z,9.50
2023-10-23T04:21:08.996Z,9.63
2023-10-23T04:24:11.671Z,9.61
2023-10-23T04:27:14.404Z,9.54
2023-10-23T04:30:17.871Z,9.56
2023-10-23T04:33:23.332Z,9.68
2023-10-23T04:36:26.229Z,9.71
2023-10-23T04:39:28.713Z,9.74
2023-10-23T04:42:31.419Z,9.71
2023-10-23T04:45:36.064Z,9.81
2023-10-23T04:48:38.806Z,9.85
2023-10-23T04:51:41.261Z,9.94
2023-10-23T04:54:43.927Z,9.89
2023-10-23T04:57:46.822Z,9.89
2023-10-23T05:00:49.893Z,9.87
2023-10-23T05:03:52.768Z,9.90
2023-10-23T05:06:56.955Z,9.97
2023-10-23T05:09:59.515Z,9.98
2023-10-23T05:13:04.360Z,10.02
2023-10-23T05:16:08.172Z,10.01
2023-10-23T05:19:10.859Z,10.12
2023-10-23T05:22:13.587Z,10.23
2023-10-23T05:25:16.162Z,10.15
2023-10-23T05:28:18.664Z,10.27
2023-10-23T05:31:21.738Z,10.32
2023-10-23T05:34:23.980Z,10.54
2023-10-23T05:37:26.677Z,10.57
2023-10-23T05:40:28.994Z,10.70
2023-10-23T05:43:31.720Z,10.66
2023-10-23T05:46:35.460Z,10.62
2023-10-23T05:49:38.455Z,10.61
2023-10-23T05:52:40.865Z,10.87
2023-10-23T05:55:43.656Z,10.57
2023-10-23T05:58:48.185Z,10.39
2023-10-23T06:01:50.822Z,10.53
2023-10-23T06:04:53.567Z,10.66
2023-10-23T06:07:55.870Z,10.76
2023-10-23T06:10:58.675Z,10.96
2023-10-23T06:14:01.112Z,11.10
2023-10-23T06:17:03.942Z,11.24
2023-10-23T06:20:06.901Z,11.32
2023-10-23T06:23:09.721Z,11.42
2023-10-23T06:26:12.111Z,11.67
2023-10-23T06:29:14.733Z,11.63
2023-10-23T06:32:19.228Z,11.71
2023-10-23T06:35:22.246Z,11.66
2023-10-23T06:38:24.884Z,11.87
2023-10-23T06:41:27.620Z,11.98
2023-10-23T06:44:30.032Z,12.02
2023-10-23T06:47:33.925Z,12.28
2023-10-23T06:50:36.509Z,12.53
2023-10-23T06:53:39.186Z,12.81
2023-10-23T06:56:41.655Z,13.08
2023-10-23T06:59:45.517Z,13.07
2023-10-23T07:02:51.380Z,13.11
2023-10-23T07:05:54.112Z,13.02
2023-10-23T07:08:56.411Z,13.19
2023-10-23T07:12:00.673Z,13.50
2023-10-23T07:15:04.185Z,13.71
2023-10-23T07:18:07.029Z,13.97
2023-10-23T07:21:09.382Z,14.21
2023-10-23T07:24:12.044Z,14.43
2023-10-23T07:27:17.122Z,14.52
2023-10-23T07:30:20.089Z,14.67
2023-10-23T07:33:22.684Z,14.70
2023-10-23T07:36:25.382Z,14.47
2023-10-23T07:39:27.805Z,14.28
2023-10-23T07:42:30.501Z,14.62
2023-10-23T07:45:33.033Z,14.82
2023-10-23T07:48:36.236Z,14.60
2023-10-23T07:51:39.828Z,14.41
2023-10-23T07:54:42.624Z,14.61
2023-10-23T07:57:45.004Z,14.74
2023-10-23T08:00:47.575Z,14.87
2023-10-23T08:03:50.542Z,14.90
2023-10-23T08:06:53.010Z,14.93
2023-10-23T08:09:55.763Z,14.89
2023-10-23T08:12:58.074Z,14.91
2023-10-23T08:16:01.649Z,15.01
2023-10-23T08:19:04.796Z,15.14
2023-10-23T08:22:08.450Z,15.18
2023-10-23T08:25:10.915Z,15.35
2023-10-23T08:28:15.099Z,15.32
2023-10-23T08:31:38.421Z,15.39
2023-10-23T08:34:42.365Z,15.44
2023-10-23T08:37:44.815Z,15.65
2023-10-23T08:40:48.472Z,15.65
2023-10-23T08:43:51.037Z,15.70
2023-10-23T08:46:53.656Z,15.75
2023-10-23T08:50:00.767Z,15.89
2023-10-23T08:53:08.709Z,16.07
2023-10-23T08:56:11.598Z,16.24
2023-10-23T08:59:15.668Z,16.34
2023-10-23T09:02:18.335Z,16.64
2023-10-23T09:05:21.909Z,16.79
2023-10-23T09:08:28.593Z,16.71
2023-10-23T09:11:50.054Z,16.60
2023-10-23T09:14:53.671Z,16.70
2023-10-23T09:18:00.027Z,16.71
2023-10-23T09:21:02.566Z,16.81
2023-10-23T09:24:06.030Z,16.98
2023-10-23T09:27:08.463Z,16.93
2023-10-23T09:30:11.576Z,16.96
2023-10-23T09:33:18.187Z,17.05
2023-10-23T09:36:21.991Z,17.20
2023-10-23T09:39:24.520Z,17.03
2023-10-23T09:42:33.409Z,17.15
2023-10-23T09:45:36.465Z,17.25
2023-10-23T09:48:44.377Z,17.28
2023-10-23T09:51:49.866Z,17.30
2023-10-23T09:54:59.742Z,17.40
2023-10-23T09:58:11.090Z,17.53
2023-10-23T10:01:16.419Z,17.48
2023-10-23T10:04:28.001Z,17.73
2023-10-23T10:07:58.777Z,17.84
2023-10-23T10:11:01.861Z,17.66
2023-10-23T10:14:05.528Z,17.65
2023-10-23T10:17:11.220Z,17.69
2023-10-23T10:20:14.015Z,17.72
2023-10-23T10:23:17.446Z,17.74
2023-10-23T10:26:21.148Z,17.82
2023-10-23T10:29:26.869Z,17.66
2023-10-23T10:32:29.137Z,17.86
2023-10-23T10:35:41.576Z,17.99
2023-10-23T10:38:45.031Z,17.91
2023-10-23T10:41:47.602Z,17.82
2023-10-23T10:45:00.923Z,17.69
2023-10-23T10:48:04.071Z,17.82
2023-10-23T10:51:07.048Z,17.96
2023-10-23T10:54:12.491Z,18.11
2023-10-23T10:57:17.162Z,18.01
2023-10-23T11:00:19.834Z,18.14
2023-10-23T11:03:22.346Z,18.26
2023-10-23T11:06:25.569Z,18.22
2023-10-23T11:09:29.060Z,18.29
2023-10-23T11:12:32.134Z,18.22
2023-10-23T11:15:34.337Z,18.25
2023-10-23T11:18:37.299Z,18.47
2023-10-23T11:21:39.706Z,18.33
2023-10-23T11:24:43.106Z,18.40
2023-10-23T11:27:51.234Z,18.46
2023-10-23T11:30:58.362Z,18.51
2023-10-23T11:34:10.752Z,18.47
2023-10-23T11:37:13.544Z,18.60
2023-10-23T11:40:21.047Z,18.68
2023-10-23T11:43:23.745Z,18.81
2023-10-23T11:46:26.361Z,18.82
2023-10-23T11:49:29.004Z,18.87
2023-10-23T11:52:31.369Z,18.98
2023-10-23T11:55:34.931Z,19.01
2023-10-23T11:58:37.306Z,19.12
2023-10-23T12:01:40.016Z,19.15
2023-10-23T12:04:42.839Z,19.09
2023-10-23T12:07:54.180Z,18.99
2023-10-23T12:10:56.903Z,19.00
2023-10-23T12:14:00.734Z,19.01
2023-10-23T12:17:04.665Z,18.93
2023-10-23T12:20:09.562Z,19.02
2023-10-23T12:23:12.094Z,18.96
2023-10-23T12:26:14.651Z,19.10
2023-10-23T12:29:17.946Z,19.15
2023-10-23T12:33:13.306Z,19.10
2023-10-23T12:35:43.632Z,19.02
2023-10-23T12:38:46.029Z,18.90
2023-10-23T12:41:48.672Z,18.86
2023-10-23T12:44:52.119Z,18.90
2023-10-23T12:47:54.750Z,18.85
2023-10-23T12:50:58.472Z,18.83
2023-10-23T12:54:01.718Z,18.80
2023-10-23T12:57:05.230Z,18.75
2023-10-23T13:00:09.138Z,18.70
2023-10-23T13:03:11.457Z,18.84
2023-10-23T13:06:14.120Z,18.95
2023-10-23T13:09:16.381Z,19.05
2023-10-23T13:12:20.380Z,19.10
2023-10-23T13:15:22.669Z,19.07
2023-10-23T13:18:26.242Z,19.03
2023-10-23T13:21:34.454Z,18.94
2023-10-23T13:24:38.450Z,18.88
2023-10-23T13:27:41.528Z,18.79
2023-10-23T13:30:44.374Z,18.80
2023-10-23T13:33:47.172Z,18.69
2023-10-23T13:36:49.826Z,18.62
2023-10-23T13:39:52.195Z,18.60
2023-10-23T13:42:54.899Z,18.54
2023-10-23T13:45:57.300Z,18.53
2023-10-23T13:49:00.158Z,18.35
2023-10-23T13:52:02.491Z,18.24
2023-10-23T13:55:05.688Z,18.28
2023-10-23T13:58:08.085Z,18.19
2023-10-23T14:01:10.978Z,18.16
2023-10-23T14:04:14.211Z,18.09
2023-10-23T14:07:16.910Z,18.07
2023-10-23T14:10:21.331Z,18.07
2023-10-23T14:13:24.399Z,18.04
2023-10-23T14:16:28.042Z,18.05
2023-10-23T14:19:45.785Z,18.06
2023-10-23T14:22:50.527Z,17.93
2023-10-23T14:25:52.827Z,17.87
2023-10-23T14:28:56.977Z,17.94
2023-10-23T14:31:59.363Z,17.90
2023-10-23T14:35:02.537Z,17.91
2023-10-23T14:38:05.600Z,17.86
2023-10-23T14:41:08.333Z,17.84
2023-10-23T14:44:10.696Z,17.86
2023-10-23T14:47:13.661Z,17.76
2023-10-23T14:50:15.911Z,17.63
2023-10-23T14:53:18.566Z,17.47
2023-10-23T14:56:20.915Z,17.34
2023-10-23T14:59:23.616Z,17.18
2023-10-23T15:02:27.538Z,17.04
2023-10-23T15:05:32.658Z,16.87
2023-10-23T15:08:34.976Z,16.71
2023-10-23T15:11:37.565Z,16.59
2023-10-23T15:14:39.795Z,16.45
2023-10-23T15:17:42.559Z,16.30
2023-10-23T15:20:45.577Z,16.13
2023-10-23T15:23:48.135Z,16.00
2023-10-23T15:26:50.517Z,15.87
2023-10-23T15:29:53.298Z,15.74
2023-10-23T15:32:55.540Z,15.62
2023-10-23T15:36:00.255Z,15.51
2023-10-23T15:39:02.655Z,15.38
2023-10-23T15:42:05.315Z,15.28
2023-10-23T15:45:08.020Z,15.17
2023-10-23T15:48:10.574Z,15.07
2023-10-23T15:51:13.183Z,14.98
2023-10-23T15:54:15.918Z,14.88
2023-10-23T15:57:18.336Z,14.81
2023-10-23T16:00:22.331Z,14.69
2023-10-23T16:03:25.217Z,14.63
2023-10-23T16:06:28.082Z,14.56
2023-10-23T16:09:31.037Z,14.50
2023-10-23T16:12:33.373Z,14.42
2023-10-23T16:15:35.964Z,14.35
2023-10-23T16:18:40.382Z,14.28
2023-10-23T16:21:43.002Z,14.20
2023-10-23T16:24:45.380Z,14.13
2023-10-23T16:27:48.129Z,14.15
2023-10-23T16:30:50.571Z,14.15
2023-10-23T16:33:53.181Z,14.14
2023-10-23T16:36:55.730Z,14.20
2023-10-23T16:39:58.509Z,14.23
2023-10-23T16:43:01.335Z,14.27
2023-10-23T16:46:04.116Z,14.27
2023-10-23T16:49:06.455Z,14.22
2023-10-23T16:52:09.851Z,14.20
2023-10-23T16:55:12.258Z,14.19
2023-10-23T16:58:18.301Z,14.15
2023-10-23T17:01:20.758Z,14.05
2023-10-23T17:04:23.747Z,13.97
2023-10-23T17:07:26.386Z,13.90
2023-10-23T17:10:29.028Z,13.77
2023-10-23T17:13:31.432Z,13.68
2023-10-23T17:16:34.257Z,13.56
2023-10-23T17:19:36.679Z,13.56
2023-10-23T17:22:40.971Z,13.50
2023-10-23T17:25:46.302Z,13.44
2023-10-23T17:28:48.843Z,13.39
2023-10-23T17:31:53.467Z,13.34
2023-10-23T17:34:56.434Z,13.34
2023-10-23T17:37:59.747Z,13.21
2023-10-23T17:41:03.606Z,13.19
2023-10-23T17:44:07.815Z,13.14
2023-10-23T17:47:10.494Z,13.08
2023-10-23T17:50:12.876Z,13.02
2023-10-23T17:53:15.602Z,13.04
2023-10-23T17:56:17.951Z,12.99
2023-10-23T17:59:20.479Z,12.98
2023-10-23T18:02:22.845Z,13.00
2023-10-23T18:05:25.956Z,12.97
2023-10-23T18:08:28.469Z,12.94
2023-10-23T18:11:31.181Z,12.97
2023-10-23T18:14:33.616Z,12.95
2023-10-23T18:17:36.224Z,12.93
2023-10-23T18:20:38.645Z,12.99
2023-10-23T18:23:41.573Z,13.04
2023-10-23T18:26:43.894Z,13.01
2023-10-23T18:29:46.570Z,12.92
2023-10-23T18:32:48.919Z,12.88
2023-10-23T18:35:53.411Z,12.84
2023-10-23T18:38:55.764Z,12.62
2023-10-23T18:41:58.539Z,12.76
2023-10-23T18:45:04.339Z,12.75
2023-10-23T18:48:07.831Z,12.82
2023-10-23T18:51:13.092Z,12.82
2023-10-23T18:54:18.593Z,12.83
2023-10-23T18:57:20.829Z,12.81
2023-10-23T19:00:23.479Z,12.82
2023-10-23T19:03:26.869Z,12.91
2023-10-23T19:06:30.917Z,12.84
2023-10-23T19:09:35.598Z,12.87
2023-10-23T19:12:38.168Z,12.82
2023-10-23T19:15:40.452Z,12.88
2023-10-23T19:18:43.016Z,12.85
2023-10-23T19:21:45.659Z,12.72
2023-10-23T19:24:48.201Z,12.56
2023-10-23T19:27:50.566Z,12.56
2023-10-23T19:30:54.542Z,12.56
2023-10-23T19:33:57.213Z,12.59
2023-10-23T19:37:00.339Z,12.57
2023-10-23T19:40:05.730Z,12.56
2023-10-23T19:43:18.553Z,12.37
2023-10-23T19:46:21.831Z,12.38
2023-10-23T19:49:24.977Z,12.33
2023-10-23T19:52:28.147Z,12.23
2023-10-23T19:55:44.859Z,12.28
2023-10-23T19:58:51.828Z,12.31
2023-10-23T20:02:00.807Z,12.34
2023-10-23T20:05:04.387Z,12.32
2023-10-23T20:08:07.163Z,12.30
2023-10-23T20:11:10.007Z,12.26
2023-10-23T20:14:15.922Z,12.25
2023-10-23T20:17:19.062Z,12.15
2023-10-23T20:20:21.723Z,12.05
2023-10-23T20:23:24.525Z,12.07
2023-10-23T20:26:26.801Z,12.03
2023-10-23T20:29:29.401Z,12.04
2023-10-23T20:32:33.001Z,12.04
2023-10-23T20:35:35.757Z,12.02
2023-10-23T20:38:41.162Z,12.07
2023-10-23T20:41:43.794Z,12.14
2023-10-23T20:44:47.078Z,12.23
2023-10-23T20:47:49.669Z,12.23
2023-10-23T20:50:52.047Z,12.31
2023-10-23T20:53:54.796Z,12.32
2023-10-23T20:56:58.074Z,12.37
2023-10-23T21:00:00.619Z,12.38
2023-10-23T21:03:03.793Z,12.38
2023-10-23T21:06:06.947Z,12.35
2023-10-23T21:09:09.332Z,12.34
2023-10-23T21:12:11.907Z,12.27
2023-10-23T21:15:14.325Z,12.09
2023-10-23T21:18:17.037Z,12.17
2023-10-23T21:21:19.505Z,12.13
2023-10-23T21:24:22.178Z,12.18
2023-10-23T21:27:24.775Z,12.20
2023-10-23T21:30:27.407Z,12.18
2023-10-23T21:33:30.261Z,12.24
2023-10-23T21:36:32.860Z,12.26
2023-10-23T21:39:35.259Z,12.34
2023-10-23T21:42:37.885Z,12.31
2023-10-23T21:45:43.356Z,12.25
2023-10-23T21:48:45.948Z,12.26
2023-10-23T21:51:48.801Z,12.23
2023-10-23T21:54:51.693Z,12.16
2023-10-23T21:57:55.709Z,12.18
2023-10-23T22:00:58.730Z,12.21
2023-10-23T22:04:01.666Z,12.22
2023-10-23T22:07:04.706Z,12.22
2023-10-23T22:10:08.147Z,12.14
2023-10-23T22:13:11.059Z,12.11
2023-10-23T22:16:13.852Z,12.05
2023-10-23T22:19:16.526Z,12.06
2023-10-23T22:22:19.032Z,12.06
2023-10-23T22:25:22.387Z,12.10
2023-10-23T22:28:25.746Z,12.12
2023-10-23T22:31:28.160Z,12.15
2023-10-23T22:34:31.187Z,12.16
2023-10-23T22:38:00.589Z,12.18
2023-10-23T22:40:57.235Z,12.23
2023-10-23T22:43:59.574Z,12.25
2023-10-23T22:47:02.261Z,12.26
2023-10-23T22:50:05.492Z,12.24
2023-10-23T22:53:08.330Z,12.22
2023-10-23T22:56:12.232Z,12.16
2023-10-23T22:59:15.480Z,12.02
2023-10-23T23:02:18.665Z,12.05
2023-10-23T23:05:21.826Z,12.02
2023-10-23T23:08:26.353Z,11.91
2023-10-23T23:11:29.234Z,11.91
2023-10-23T23:14:31.773Z,11.76
2023-10-23T23:17:42.031Z,11.72
2023-10-23T23:20:48.503Z,11.69
2023-10-23T23:23:51.084Z,11.68
2023-10-23T23:26:54.484Z,11.58
2023-10-23T23:29:57.598Z,11.56
2023-10-23T23:33:00.080Z,11.59
2023-10-23T23:36:03.085Z,11.63
2023-10-23T23:39:05.448Z,11.58
2023-10-23T23:42:08.103Z,11.58
2023-10-23T23:45:10.455Z,11.53
2023-10-23T23:48:13.178Z,11.49
2023-10-23T23:51:15.554Z,11.45
2023-10-23T23:54:18.118Z,11.36
2023-10-23T23:57:20.497Z,11.50
